Time;durP1;ratioP1;P1;durP2;ratioP2;P2;SDS_P1;SDS_P2;PMS_P1;PMS_P2;Temp;Humidity;BMP_temperature;BMP_pressure;BME280_temperature;BME280_humidity;BME280_pressure;Samples;Min_cycle;Max_cycle;Signal;HPM_P1;HPM_P2
2022/05/10 00:01:05;;;;;;;0.52;0.38;;;;;;;;;;5047843;28;20036;-75
2022/05/10 00:03:34;;;;;;;1.77;0.93;;;;;;;;;;5047043;28;20546;-75
2022/05/10 00:06:00;;;;;;;8.25;0.90;;;;;;;;;;5044364;28;20021;-75
2022/05/10 00:08:26;;;;;;;1.30;1.20;;;;;;;;;;5041924;28;20135;-75
2022/05/10 00:10:54;;;;;;;0.35;0.35;;;;;;;;;;5046904;28;20108;-75
2022/05/10 00:13:20;;;;;;;0.38;0.38;;;;;;;;;;5046787;28;20163;-76
2022/05/10 00:15:47;;;;;;;1.85;1.17;;;;;;;;;;5046090;28;20123;-75
2022/05/10 00:18:15;;;;;;;0.52;0.45;;;;;;;;;;5045774;28;20041;-75
2022/05/10 00:20:41;;;;;;;1.40;0.95;;;;;;;;;;5046428;28;20391;-75
2022/05/10 00:23:07;;;;;;;16.48;0.60;;;;;;;;;;5045354;28;20036;-75
2022/05/10 00:25:33;;;;;;;0.32;0.22;;;;;;;;;;5039654;28;20029;-75
2022/05/10 00:28:00;;;;;;;0.45;0.45;;;;;;;;;;5041702;28;20029;-75
2022/05/10 00:30:29;;;;;;;0.85;0.63;;;;;;;;;;5044562;28;20028;-75
2022/05/10 00:32:55;;;;;;;0.75;0.75;;;;;;;;;;5042056;28;20037;-75
2022/05/10 00:35:24;;;;;;;0.57;0.57;;;;;;;;;;5047297;28;20249;-75
2022/05/10 00:37:50;;;;;;;0.70;0.60;;;;;;;;;;5042680;28;20028;-75
2022/05/10 00:40:21;;;;;;;0.40;0.40;;;;;;;;;;5040545;28;20040;-75
2022/05/10 00:43:03;;;;;;;0.10;0.10;;;;;;;;;;5045692;28;20032;-75
2022/05/10 00:45:39;;;;;;;0.17;0.17;;;;;;;;;;5046738;28;20029;-75
2022/05/10 00:48:17;;;;;;;0.60;0.60;;;;;;;;;;5049169;28;20102;-75
2022/05/10 00:50:48;;;;;;;5.07;0.57;;;;;;;;;;5044911;28;20029;-75
2022/05/10 00:53:23;;;;;;;0.47;0.47;;;;;;;;;;5044118;28;20033;-75
2022/05/10 00:55:57;;;;;;;2.85;0.85;;;;;;;;;;5038231;28;20472;-75
2022/05/10 00:58:27;;;;;;;0.80;0.63;;;;;;;;;;5047164;28;20032;-75
2022/05/10 01:00:56;;;;;;;0.30;0.30;;;;;;;;;;5045662;28;20041;-75
2022/05/10 01:03:24;;;;;;;0.08;0.08;;;;;;;;;;5044111;28;20044;-75
2022/05/10 01:05:50;;;;;;;1.02;0.55;;;;;;;;;;5044835;28;20475;-75
2022/05/10 01:08:23;;;;;;;0.35;0.35;;;;;;;;;;5048630;28;20035;-75
2022/05/10 01:10:49;;;;;;;0.98;0.68;;;;;;;;;;5050492;28;20553;-75
2022/05/10 01:13:41;;;;;;;0.20;0.20;;;;;;;;;;5043772;28;20106;-75
2022/05/10 01:16:09;;;;;;;0.50;0.50;;;;;;;;;;5045196;28;20045;-75
2022/05/10 01:18:35;;;;;;;0.00;0.00;;;;;;;;;;5051203;28;20052;-75
2022/05/10 01:21:05;;;;;;;1.30;0.38;;;;;;;;;;5050223;28;20480;-75
2022/05/10 01:23:44;;;;;;;0.52;0.52;;;;;;;;;;5047024;28;20091;-75
2022/05/10 01:26:20;;;;;;;0.40;0.22;;;;;;;;;;5048494;28;20498;-75
2022/05/10 01:28:48;;;;;;;0.17;0.17;;;;;;;;;;5044522;28;20029;-75
2022/05/10 01:31:38;;;;;;;0.35;0.35;;;;;;;;;;5048210;28;20549;-75
2022/05/10 01:34:09;;;;;;;0.63;0.63;;;;;;;;;;5035741;28;20573;-75
2022/05/10 01:36:43;;;;;;;0.65;0.65;;;;;;;;;;5037113;28;20045;-75
2022/05/10 01:39:21;;;;;;;1.77;0.85;;;;;;;;;;5049459;28;20388;-75
2022/05/10 01:41:54;;;;;;;1.17;0.75;;;;;;;;;;5048489;28;20108;-75
2022/05/10 01:44:22;;;;;;;0.73;0.73;;;;;;;;;;5050652;28;20044;-75
2022/05/10 01:46:49;;;;;;;0.93;0.93;;;;;;;;;;5049268;28;20475;-75
2022/05/10 01:49:20;;;;;;;0.28;0.20;;;;;;;;;;5043794;28;20621;-74
2022/05/10 01:51:51;;;;;;;0.20;0.20;;;;;;;;;;5045413;28;20040;-75
2022/05/10 01:54:37;;;;;;;0.70;0.40;;;;;;;;;;5040856;28;20044;-75
2022/05/10 01:57:04;;;;;;;3.58;0.93;;;;;;;;;;5028192;28;20164;-75
2022/05/10 01:59:30;;;;;;;0.40;0.35;;;;;;;;;;5049527;28;20373;-75
2022/05/10 02:01:57;;;;;;;1.10;0.80;;;;;;;;;;5040690;28;20032;-75
2022/05/10 02:04:26;;;;;;;0.38;0.20;;;;;;;;;;5045404;28;20049;-75
2022/05/10 02:06:58;;;;;;;0.10;0.10;;;;;;;;;;5044933;28;20025;-74
2022/05/10 02:09:33;;;;;;;0.10;0.10;;;;;;;;;;5048285;28;20031;-75
2022/05/10 02:12:00;;;;;;;0.10;0.10;;;;;;;;;;5042013;28;20040;-75
2022/05/10 02:14:34;;;;;;;0.43;0.43;;;;;;;;;;5041670;28;20082;-74
2022/05/10 02:17:17;;;;;;;0.38;0.32;;;;;;;;;;5049075;28;20025;-75
2022/05/10 02:19:46;;;;;;;0.38;0.38;;;;;;;;;;5046519;28;20029;-75
2022/05/10 02:22:16;;;;;;;0.85;0.38;;;;;;;;;;5047984;28;20454;-75
2022/05/10 02:24:45;;;;;;;0.10;0.10;;;;;;;;;;5039763;28;20021;-75
2022/05/10 02:27:14;;;;;;;4.55;1.58;;;;;;;;;;5048974;28;20033;-75
2022/05/10 02:29:48;;;;;;;0.47;0.35;;;;;;;;;;5037929;28;20115;-75
2022/05/10 02:35:05;;;;;;;0.17;0.17;;;;;;;;;;5040555;28;20094;-75
2022/05/10 02:37:31;;;;;;;0.28;0.28;;;;;;;;;;5038254;28;20064;-75
2022/05/10 02:39:58;;;;;;;0.35;0.35;;;;;;;;;;5048710;28;20044;-75
2022/05/10 02:42:25;;;;;;;0.60;0.60;;;;;;;;;;5049554;28;20036;-75
2022/05/10 02:44:54;;;;;;;0.25;0.20;;;;;;;;;;5046835;28;20036;-75
2022/05/10 02:47:28;;;;;;;1.35;0.43;;;;;;;;;;5044769;28;20371;-75
2022/05/10 02:49:54;;;;;;;0.10;0.10;;;;;;;;;;5043603;28;20042;-75
2022/05/10 02:52:20;;;;;;;0.52;0.52;;;;;;;;;;5049154;28;20037;-74
2022/05/10 02:54:46;;;;;;;1.08;1.05;;;;;;;;;;5046206;28;20112;-75
2022/05/10 02:57:12;;;;;;;0.85;0.60;;;;;;;;;;5046007;28;20106;-74
2022/05/10 02:59:39;;;;;;;0.30;0.30;;;;;;;;;;5042275;28;20025;-75
2022/05/10 03:02:23;;;;;;;0.80;0.80;;;;;;;;;;5046967;28;20029;-75
2022/05/10 03:04:56;;;;;;;1.27;0.52;;;;;;;;;;5042887;28;20122;-75
2022/05/10 03:07:22;;;;;;;1.25;0.68;;;;;;;;;;5048506;28;20141;-75
2022/05/10 03:09:48;;;;;;;0.30;0.30;;;;;;;;;;5048284;28;20122;-75
2022/05/10 03:12:14;;;;;;;1.25;0.45;;;;;;;;;;5045870;28;20081;-74
2022/05/10 03:14:40;;;;;;;0.20;0.20;;;;;;;;;;5046696;28;20036;-75
2022/05/10 03:17:10;;;;;;;0.50;0.25;;;;;;;;;;5047746;28;20056;-74
2022/05/10 03:19:36;;;;;;;25.02;1.27;;;;;;;;;;5047512;28;20041;-75
2022/05/10 03:22:02;;;;;;;0.30;0.30;;;;;;;;;;5047592;28;20025;-75
2022/05/10 03:24:28;;;;;;;0.20;0.20;;;;;;;;;;5048061;28;20032;-74
2022/05/10 03:26:54;;;;;;;0.45;0.40;;;;;;;;;;5047055;28;20029;-74
2022/05/10 03:29:20;;;;;;;1.30;0.68;;;;;;;;;;5047730;28;20487;-74
2022/05/10 03:31:46;;;;;;;0.52;0.52;;;;;;;;;;5034768;28;20026;-74
2022/05/10 03:36:57;;;;;;;0.93;0.43;;;;;;;;;;5044394;28;20036;-74
2022/05/10 03:39:23;;;;;;;0.20;0.20;;;;;;;;;;5038988;28;20026;-74
2022/05/10 03:41:49;;;;;;;0.45;0.45;;;;;;;;;;5038794;28;20139;-75
2022/05/10 03:44:15;;;;;;;0.17;0.17;;;;;;;;;;5047306;28;20035;-74
2022/05/10 03:46:41;;;;;;;1.00;0.75;;;;;;;;;;5045706;28;20064;-75
2022/05/10 03:49:07;;;;;;;1.38;1.08;;;;;;;;;;5047963;28;20029;-74
2022/05/10 03:51:33;;;;;;;0.10;0.10;;;;;;;;;;5043998;28;20521;-75
2022/05/10 03:53:59;;;;;;;0.70;0.40;;;;;;;;;;5035842;28;20090;-75
2022/05/10 03:56:25;;;;;;;3.63;1.13;;;;;;;;;;5034781;28;20030;-75
2022/05/10 03:58:51;;;;;;;0.30;0.30;;;;;;;;;;5046844;28;20280;-76
2022/05/10 04:01:18;;;;;;;0.00;0.00;;;;;;;;;;5039854;28;20020;-75
2022/05/10 04:03:45;;;;;;;0.55;0.55;;;;;;;;;;5045673;28;20041;-76
2022/05/10 04:06:11;;;;;;;1.15;0.30;;;;;;;;;;5048896;28;20065;-75
2022/05/10 04:08:37;;;;;;;1.65;0.82;;;;;;;;;;5048603;28;20032;-75
2022/05/10 04:11:08;;;;;;;0.25;0.25;;;;;;;;;;5043823;28;20086;-75
2022/05/10 04:13:34;;;;;;;0.13;0.13;;;;;;;;;;5046147;28;20025;-76
2022/05/10 04:16:00;;;;;;;0.40;0.40;;;;;;;;;;5047982;28;20464;-75
2022/05/10 04:18:27;;;;;;;0.17;0.17;;;;;;;;;;5048513;28;20167;-75
2022/05/10 04:20:53;;;;;;;0.73;0.73;;;;;;;;;;5046979;28;20365;-75
2022/05/10 04:23:19;;;;;;;0.77;0.77;;;;;;;;;;5042316;28;20021;-75
2022/05/10 04:25:45;;;;;;;0.57;0.57;;;;;;;;;;5046763;28;20044;-76
2022/05/10 04:28:11;;;;;;;0.70;0.65;;;;;;;;;;5043285;28;20442;-76
2022/05/10 04:30:37;;;;;;;0.90;0.38;;;;;;;;;;5044737;28;20031;-76
2022/05/10 04:33:03;;;;;;;2.40;0.60;;;;;;;;;;5043627;28;20032;-75
2022/05/10 04:35:29;;;;;;;0.28;0.25;;;;;;;;;;5046741;28;20129;-76
2022/05/10 04:37:55;;;;;;;0.32;0.32;;;;;;;;;;5041497;28;20117;-76
2022/05/10 04:43:19;;;;;;;0.30;0.30;;;;;;;;;;5015489;28;20171;-76
2022/05/10 04:45:46;;;;;;;0.10;0.10;;;;;;;;;;5055979;28;20104;-75
2022/05/10 04:48:12;;;;;;;1.20;1.20;;;;;;;;;;5059468;28;20024;-75
2022/05/10 04:50:38;;;;;;;0.63;0.63;;;;;;;;;;5041784;28;20487;-76
2022/05/10 04:53:03;;;;;;;0.57;0.57;;;;;;;;;;5045144;28;20064;-76
2022/05/10 04:55:29;;;;;;;0.17;0.17;;;;;;;;;;5050460;28;20122;-76
2022/05/10 04:57:55;;;;;;;1.70;1.05;;;;;;;;;;5051453;28;20060;-77
2022/05/10 05:00:23;;;;;;;0.82;0.80;;;;;;;;;;5050310;28;20028;-77
2022/05/10 05:02:49;;;;;;;0.73;0.73;;;;;;;;;;5049626;28;20040;-74
2022/05/10 05:05:15;;;;;;;5.03;0.93;;;;;;;;;;5053864;28;20542;-75
2022/05/10 05:07:41;;;;;;;0.25;0.15;;;;;;;;;;5050517;28;20477;-77
2022/05/10 05:10:07;;;;;;;3.20;1.25;;;;;;;;;;5050657;28;20033;-77
2022/05/10 05:12:34;;;;;;;0.52;0.52;;;;;;;;;;5049415;28;20116;-80
2022/05/10 05:15:01;;;;;;;0.80;0.43;;;;;;;;;;5038395;28;20032;-80
2022/05/10 05:17:26;;;;;;;4.97;0.80;;;;;;;;;;5039681;28;20387;-80
2022/05/10 05:19:52;;;;;;;0.28;0.28;;;;;;;;;;5035029;28;20025;-80
2022/05/10 05:22:18;;;;;;;0.20;0.20;;;;;;;;;;5047660;28;20527;-77
2022/05/10 05:24:44;;;;;;;1.75;0.65;;;;;;;;;;5050408;28;20039;-76
2022/05/10 05:27:10;;;;;;;0.75;0.75;;;;;;;;;;5045654;28;20488;-78
2022/05/10 05:29:36;;;;;;;3.22;1.55;;;;;;;;;;5049591;28;20083;-78
2022/05/10 05:32:05;;;;;;;0.88;0.75;;;;;;;;;;5050348;28;20036;-78
2022/05/10 05:34:31;;;;;;;0.50;0.40;;;;;;;;;;5041773;28;20036;-79
2022/05/10 05:39:42;;;;;;;3.72;1.25;;;;;;;;;;5049551;28;20110;-78
2022/05/10 05:42:08;;;;;;;0.52;0.25;;;;;;;;;;5046708;28;20061;-78
2022/05/10 05:44:34;;;;;;;0.10;0.10;;;;;;;;;;5049514;28;20039;-78
2022/05/10 05:47:00;;;;;;;2.40;1.42;;;;;;;;;;5060343;28;20029;-78
2022/05/10 05:49:26;;;;;;;0.20;0.20;;;;;;;;;;5051439;28;20032;-78
2022/05/10 05:51:59;;;;;;;0.32;0.32;;;;;;;;;;5048005;28;20117;-79
2022/05/10 05:54:25;;;;;;;0.50;0.50;;;;;;;;;;5045154;28;20056;-78
2022/05/10 05:56:58;;;;;;;2.75;1.40;;;;;;;;;;5047510;28;20468;-78
2022/05/10 05:59:24;;;;;;;0.73;0.73;;;;;;;;;;5050114;28;20180;-78
2022/05/10 06:01:50;;;;;;;1.70;1.13;;;;;;;;;;5047978;28;20634;-79
2022/05/10 06:04:16;;;;;;;1.63;0.93;;;;;;;;;;5039395;28;20056;-78
2022/05/10 06:06:42;;;;;;;1.15;1.05;;;;;;;;;;5039006;28;20068;-78
2022/05/10 06:09:08;;;;;;;0.90;0.90;;;;;;;;;;5045366;28;20060;-78
2022/05/10 06:11:34;;;;;;;1.13;0.88;;;;;;;;;;5049166;28;20021;-79
2022/05/10 06:14:01;;;;;;;0.75;0.75;;;;;;;;;;5048724;28;20484;-79
2022/05/10 06:16:27;;;;;;;0.40;0.30;;;;;;;;;;5048924;28;20036;-78
2022/05/10 06:18:53;;;;;;;0.38;0.32;;;;;;;;;;5048282;28;20025;-78
2022/05/10 06:21:19;;;;;;;0.40;0.40;;;;;;;;;;5049550;28;20026;-78
2022/05/10 06:23:45;;;;;;;0.63;0.63;;;;;;;;;;5043415;28;20021;-78
2022/05/10 06:26:11;;;;;;;0.55;0.55;;;;;;;;;;5045225;28;20034;-79
2022/05/10 06:28:37;;;;;;;0.40;0.40;;;;;;;;;;5037482;28;20034;-78
2022/05/10 06:31:05;;;;;;;6.47;0.60;;;;;;;;;;5049719;28;20021;-78
2022/05/10 06:33:32;;;;;;;0.57;0.45;;;;;;;;;;5041121;28;20163;-78
2022/05/10 06:35:58;;;;;;;0.65;0.63;;;;;;;;;;5049438;28;20480;-79
2022/05/10 06:38:27;;;;;;;0.10;0.10;;;;;;;;;;5050029;28;20029;-78
2022/05/10 06:40:56;;;;;;;0.52;0.52;;;;;;;;;;5047918;28;20017;-79
2022/05/10 06:43:22;;;;;;;1.15;0.68;;;;;;;;;;5048565;28;20494;-78
2022/05/10 06:45:49;;;;;;;5.50;1.17;;;;;;;;;;5043058;28;20114;-77
2022/05/10 06:48:16;;;;;;;3.25;0.55;;;;;;;;;;5039862;28;20025;-78
2022/05/10 06:50:42;;;;;;;0.25;0.25;;;;;;;;;;5038702;28;20037;-78
2022/05/10 06:53:09;;;;;;;0.30;0.30;;;;;;;;;;5048671;28;20114;-76
2022/05/10 06:55:35;;;;;;;0.20;0.20;;;;;;;;;;5045191;28;20033;-79
2022/05/10 06:58:01;;;;;;;0.90;0.82;;;;;;;;;;5045366;28;20047;-78
2022/05/10 07:00:27;;;;;;;1.45;1.23;;;;;;;;;;5050074;28;20116;-77
2022/05/10 07:02:55;;;;;;;1.05;0.95;;;;;;;;;;5047247;28;20048;-77
2022/05/10 07:05:21;;;;;;;1.75;1.30;;;;;;;;;;5035763;28;20068;-77
2022/05/10 07:07:47;;;;;;;2.40;0.47;;;;;;;;;;5045429;28;20440;-77
2022/05/10 07:10:13;;;;;;;1.75;0.93;;;;;;;;;;5049887;28;20021;-77
2022/05/10 07:12:40;;;;;;;0.30;0.30;;;;;;;;;;5048094;28;20024;-78
2022/05/10 07:15:07;;;;;;;0.52;0.52;;;;;;;;;;5030157;28;20246;-79
2022/05/10 07:17:33;;;;;;;0.40;0.38;;;;;;;;;;5036021;28;20031;-79
2022/05/10 07:19:59;;;;;;;1.20;1.13;;;;;;;;;;5049337;28;20115;-78
2022/05/10 07:22:25;;;;;;;1.20;0.20;;;;;;;;;;5048356;28;20204;-79
2022/05/10 07:24:51;;;;;;;2.58;0.82;;;;;;;;;;5049494;28;20036;-79
2022/05/10 07:27:17;;;;;;;0.73;0.73;;;;;;;;;;5046520;28;20098;-79
2022/05/10 07:29:43;;;;;;;2.67;0.98;;;;;;;;;;5044902;28;20029;-77
2022/05/10 07:32:09;;;;;;;0.70;0.70;;;;;;;;;;5048150;28;20043;-77
2022/05/10 07:34:35;;;;;;;2.10;1.63;;;;;;;;;;5049243;28;20021;-78
2022/05/10 07:37:01;;;;;;;1.50;1.27;;;;;;;;;;5048337;28;20025;-76
2022/05/10 07:39:27;;;;;;;0.30;0.30;;;;;;;;;;5041933;28;20021;-79
2022/05/10 07:41:54;;;;;;;0.52;0.52;;;;;;;;;;5042497;28;20417;-80
2022/05/10 07:44:21;;;;;;;0.32;0.32;;;;;;;;;;5039452;28;20056;-79
2022/05/10 07:46:48;;;;;;;1.30;1.05;;;;;;;;;;5039945;28;20036;-81
2022/05/10 07:49:14;;;;;;;4.00;0.88;;;;;;;;;;5040538;28;20155;-83
2022/05/10 07:51:40;;;;;;;0.63;0.63;;;;;;;;;;5037118;28;20052;-82
2022/05/10 07:54:06;;;;;;;1.02;1.02;;;;;;;;;;5044019;28;20029;-83
2022/05/10 07:56:32;;;;;;;3.53;0.98;;;;;;;;;;5044111;28;20501;-83
2022/05/10 07:58:58;;;;;;;0.55;0.55;;;;;;;;;;5033328;28;20021;-83
2022/05/10 08:01:25;;;;;;;1.27;1.17;;;;;;;;;;5037567;28;20380;-83
2022/05/10 08:03:51;;;;;;;0.50;0.50;;;;;;;;;;5042539;28;20053;-83
2022/05/10 08:06:17;;;;;;;0.38;0.30;;;;;;;;;;5047601;28;20032;-80
2022/05/10 08:08:43;;;;;;;0.68;0.47;;;;;;;;;;5048335;28;20021;-75
2022/05/10 08:11:09;;;;;;;0.10;0.10;;;;;;;;;;5028997;28;20087;-78
2022/05/10 08:13:37;;;;;;;0.43;0.40;;;;;;;;;;5038456;28;20435;-76
2022/05/10 08:16:03;;;;;;;0.65;0.57;;;;;;;;;;5044267;28;20041;-76
2022/05/10 08:18:29;;;;;;;1.95;0.60;;;;;;;;;;5053200;28;20150;-76
2022/05/10 08:20:57;;;;;;;0.20;0.20;;;;;;;;;;5054220;28;20036;-76
2022/05/10 08:23:25;;;;;;;0.85;0.77;;;;;;;;;;5054347;28;20086;-75
2022/05/10 08:25:52;;;;;;;0.57;0.35;;;;;;;;;;5050858;28;20025;-77
2022/05/10 08:28:18;;;;;;;1.15;0.40;;;;;;;;;;5046509;28;20033;-75
2022/05/10 08:30:46;;;;;;;0.22;0.22;;;;;;;;;;5049184;28;20076;-76
2022/05/10 08:33:13;;;;;;;1.75;0.90;;;;;;;;;;5046715;28;20032;-76
2022/05/10 08:35:38;;;;;;;0.43;0.43;;;;;;;;;;5047234;28;20496;-76
2022/05/10 08:38:05;;;;;;;0.57;0.45;;;;;;;;;;5043551;28;20108;-76
2022/05/10 08:40:32;;;;;;;0.10;0.10;;;;;;;;;;5045821;28;20037;-79
2022/05/10 08:43:01;;;;;;;3.30;1.15;;;;;;;;;;5050874;28;20490;-79
2022/05/10 08:45:28;;;;;;;0.95;0.60;;;;;;;;;;5047543;28;20047;-79
2022/05/10 08:47:54;;;;;;;0.75;0.75;;;;;;;;;;5051270;28;20698;-81
2022/05/10 08:50:21;;;;;;;1.35;1.15;;;;;;;;;;5054391;28;20029;-80
2022/05/10 08:52:51;;;;;;;2.38;1.10;;;;;;;;;;5050818;28;20032;-75
2022/05/10 08:55:21;;;;;;;0.20;0.20;;;;;;;;;;5048342;28;20024;-76
2022/05/10 08:58:06;;;;;;;1.92;1.15;;;;;;;;;;5053316;28;20032;-75
2022/05/10 09:00:44;;;;;;;1.48;0.77;;;;;;;;;;5044235;28;20021;-76
2022/05/10 09:03:18;;;;;;;0.85;0.60;;;;;;;;;;5052114;28;20319;-75
2022/05/10 09:05:44;;;;;;;1.58;0.98;;;;;;;;;;5046300;28;20060;-76
2022/05/10 09:08:10;;;;;;;0.55;0.55;;;;;;;;;;5052039;28;20033;-78
2022/05/10 09:10:44;;;;;;;0.60;0.60;;;;;;;;;;5051862;28;20468;-75
2022/05/10 09:13:14;;;;;;;2.42;0.98;;;;;;;;;;5052640;28;20037;-76
2022/05/10 09:15:44;;;;;;;1.95;0.30;;;;;;;;;;5049479;28;20078;-77
2022/05/10 09:18:21;;;;;;;0.35;0.22;;;;;;;;;;5047249;28;20054;-76
2022/05/10 09:21:00;;;;;;;0.35;0.35;;;;;;;;;;5048565;28;20067;-76
2022/05/10 09:23:35;;;;;;;0.20;0.20;;;;;;;;;;5043907;28;20067;-76
2022/05/10 09:26:01;;;;;;;0.40;0.40;;;;;;;;;;5046734;28;20032;-75
2022/05/10 09:28:30;;;;;;;2.08;0.98;;;;;;;;;;5045044;28;20037;-75
2022/05/10 09:36:52;;;;;;;4.68;0.57;;;;;;;;;;4988921;28;20109;-78
2022/05/10 09:39:23;;;;;;;0.65;0.65;;;;;;;;;;5024724;28;20036;-77
2022/05/10 09:41:49;;;;;;;;;;;;;;;;;;5047361;28;20024;-75
2022/05/10 09:44:18;;;;;;;0.20;0.20;;;;;;;;;;5059141;28;19913;-76
2022/05/10 09:46:44;;;;;;;0.20;0.20;;;;;;;;;;5043987;28;20029;-76
2022/05/10 09:49:29;;;;;;;4.05;0.88;;;;;;;;;;5046628;28;20029;-76
2022/05/10 09:51:58;;;;;;;0.60;0.60;;;;;;;;;;5041785;28;20031;-76
2022/05/10 09:54:31;;;;;;;0.35;0.35;;;;;;;;;;5040235;28;20025;-76
2022/05/10 09:56:58;;;;;;;30.15;1.27;;;;;;;;;;5046254;28;20111;-76
2022/05/10 09:59:28;;;;;;;0.73;0.70;;;;;;;;;;5039613;28;20041;-76
2022/05/10 10:01:56;;;;;;;0.70;0.52;;;;;;;;;;5045506;28;20052;-76
2022/05/10 10:04:27;;;;;;;1.10;0.60;;;;;;;;;;5049088;28;20499;-76
2022/05/10 10:07:05;;;;;;;0.40;0.40;;;;;;;;;;5045113;28;20111;-76
2022/05/10 10:09:32;;;;;;;0.30;0.30;;;;;;;;;;5041188;28;20033;-77
2022/05/10 10:11:58;;;;;;;0.47;0.47;;;;;;;;;;5043860;28;20106;-76
2022/05/10 10:14:38;;;;;;;1.17;1.08;;;;;;;;;;5056563;28;20550;-76
2022/05/10 10:17:05;;;;;;;6.90;0.88;;;;;;;;;;5044834;28;20536;-76
2022/05/10 10:19:31;;;;;;;4.20;1.38;;;;;;;;;;5042864;28;20419;-76
2022/05/10 10:22:00;;;;;;;2.17;0.75;;;;;;;;;;5030622;28;20021;-76
2022/05/10 10:24:30;;;;;;;1.77;0.68;;;;;;;;;;5044298;28;20059;-74
2022/05/10 10:26:58;;;;;;;1.13;0.68;;;;;;;;;;5045184;28;20098;-76
2022/05/10 10:29:32;;;;;;;0.68;0.57;;;;;;;;;;5044622;28;20365;-75
2022/05/10 10:32:07;;;;;;;1.52;0.63;;;;;;;;;;5042320;28;20025;-75
2022/05/10 10:34:45;;;;;;;0.55;0.55;;;;;;;;;;5041418;28;20029;-76
2022/05/10 10:37:14;;;;;;;0.82;0.68;;;;;;;;;;5049435;28;20053;-76
2022/05/10 10:39:44;;;;;;;1.77;0.77;;;;;;;;;;5041199;28;20029;-76
2022/05/10 10:42:29;;;;;;;0.73;0.65;;;;;;;;;;5046723;28;20025;-75
2022/05/10 10:44:56;;;;;;;0.52;0.30;;;;;;;;;;5041666;28;20529;-76
2022/05/10 10:47:31;;;;;;;1.95;0.50;;;;;;;;;;5044194;28;20033;-76
2022/05/10 10:50:16;;;;;;;1.65;0.77;;;;;;;;;;5037708;28;20033;-76
2022/05/10 10:52:42;;;;;;;0.70;0.70;;;;;;;;;;5043867;28;20049;-75
2022/05/10 10:55:08;;;;;;;1.17;0.98;;;;;;;;;;5041555;28;20060;-76
2022/05/10 10:57:34;;;;;;;8.93;0.52;;;;;;;;;;5046634;28;20025;-75
2022/05/10 11:00:27;;;;;;;1.67;0.65;;;;;;;;;;5046918;28;20608;-76
2022/05/10 11:02:58;;;;;;;0.57;0.57;;;;;;;;;;5019332;28;20146;-76
2022/05/10 11:05:30;;;;;;;0.65;0.63;;;;;;;;;;5041642;28;20459;-76
2022/05/10 11:08:09;;;;;;;0.95;0.40;;;;;;;;;;5039249;28;20123;-76
2022/05/10 11:10:43;;;;;;;1.08;0.65;;;;;;;;;;5044982;28;20025;-77
2022/05/10 11:13:09;;;;;;;3.50;0.50;;;;;;;;;;5049631;28;20029;-78
2022/05/10 11:15:46;;;;;;;1.02;0.93;;;;;;;;;;5048952;28;20766;-81
2022/05/10 11:18:18;;;;;;;0.43;0.43;;;;;;;;;;5045835;28;20112;-79
2022/05/10 11:20:49;;;;;;;3.28;1.25;;;;;;;;;;5050048;28;20025;-83
2022/05/10 11:23:24;;;;;;;1.60;1.08;;;;;;;;;;5046286;28;20025;-79
2022/05/10 11:25:58;;;;;;;1.40;0.95;;;;;;;;;;5041380;28;20055;-83
2022/05/10 11:28:46;;;;;;;0.73;0.73;;;;;;;;;;5049977;28;20024;-83
2022/05/10 11:31:20;;;;;;;0.75;0.75;;;;;;;;;;5040709;28;20091;-79
2022/05/10 11:33:55;;;;;;;0.68;0.50;;;;;;;;;;5045227;28;20543;-76
2022/05/10 11:36:39;;;;;;;1.05;0.85;;;;;;;;;;5046118;28;20535;-77
2022/05/10 11:39:26;;;;;;;1.65;0.90;;;;;;;;;;5031443;28;20036;-76
2022/05/10 11:42:02;;;;;;;0.90;0.80;;;;;;;;;;5041712;28;20036;-77
2022/05/10 11:44:37;;;;;;;1.13;1.05;;;;;;;;;;5033016;28;20361;-77
2022/05/10 11:47:06;;;;;;;1.58;1.27;;;;;;;;;;5045382;28;20036;-76
2022/05/10 11:49:44;;;;;;;0.38;0.38;;;;;;;;;;5044339;28;20033;-77
2022/05/10 11:52:28;;;;;;;0.93;0.55;;;;;;;;;;5039929;28;20478;-76
2022/05/10 11:54:57;;;;;;;1.00;0.68;;;;;;;;;;5042182;28;20033;-82
2022/05/10 11:57:24;;;;;;;0.32;0.32;;;;;;;;;;5047676;28;20807;-78
2022/05/10 11:59:50;;;;;;;0.50;0.40;;;;;;;;;;5044471;28;20071;-79
2022/05/10 12:02:28;;;;;;;1.33;0.70;;;;;;;;;;5043289;28;20028;-79
2022/05/10 12:05:18;;;;;;;12.45;1.38;;;;;;;;;;5043495;28;20057;-79
2022/05/10 12:07:48;;;;;;;0.80;0.70;;;;;;;;;;5032584;28;20087;-78
2022/05/10 12:10:34;;;;;;;0.80;0.80;;;;;;;;;;5043254;28;20642;-79
2022/05/10 12:13:01;;;;;;;0.90;0.63;;;;;;;;;;5042561;28;20026;-78
2022/05/10 12:21:19;;;;;;;0.70;0.70;;;;;;;;;;5045472;28;20040;-77
2022/05/10 12:21:21;;;;;;;1.13;0.65;;;;;;;;;;5045421;28;20051;-86
2022/05/10 12:24:06;;;;;;;0.60;0.60;;;;;;;;;;5047125;28;20036;-84
2022/05/10 12:26:46;;;;;;;1.33;1.08;;;;;;;;;;5046926;28;20063;-76
2022/05/10 12:29:34;;;;;;;0.82;0.70;;;;;;;;;;5043727;28;20037;-78
2022/05/10 12:32:01;;;;;;;0.93;0.82;;;;;;;;;;5038718;28;20042;-78
2022/05/10 12:34:40;;;;;;;1.63;1.23;;;;;;;;;;5040606;28;20037;-77
2022/05/10 12:37:33;;;;;;;0.45;0.45;;;;;;;;;;5038843;28;20063;-78
2022/05/10 12:40:15;;;;;;;1.02;1.00;;;;;;;;;;5044102;28;20082;-79
2022/05/10 12:42:54;;;;;;;0.20;0.20;;;;;;;;;;5042844;28;21470;-78
2022/05/10 12:45:27;;;;;;;0.60;0.60;;;;;;;;;;5045525;28;20117;-79
2022/05/10 12:48:10;;;;;;;0.80;0.80;;;;;;;;;;5038891;28;20176;-78
2022/05/10 12:50:55;;;;;;;0.50;0.43;;;;;;;;;;5040364;28;20055;-78
2022/05/10 12:53:24;;;;;;;3.15;0.60;;;;;;;;;;5037283;28;20104;-81
2022/05/10 12:55:51;;;;;;;0.82;0.80;;;;;;;;;;5043085;28;20056;-77
2022/05/10 12:58:23;;;;;;;4.50;2.65;;;;;;;;;;5043484;28;20119;-78
2022/05/10 13:00:52;;;;;;;0.22;0.22;;;;;;;;;;5035588;28;20025;-78
2022/05/10 13:03:21;;;;;;;2.10;0.82;;;;;;;;;;5041609;28;20071;-79
2022/05/10 13:05:57;;;;;;;0.63;0.63;;;;;;;;;;5051835;28;20060;-78
2022/05/10 13:08:46;;;;;;;1.40;0.90;;;;;;;;;;5051278;28;20025;-78
2022/05/10 13:11:13;;;;;;;0.82;0.80;;;;;;;;;;5040910;28;20060;-77
2022/05/10 13:13:39;;;;;;;1.05;0.70;;;;;;;;;;5037824;28;20055;-78
2022/05/10 13:16:05;;;;;;;1.08;0.60;;;;;;;;;;5035736;28;20033;-78
2022/05/10 13:18:32;;;;;;;0.57;0.57;;;;;;;;;;5043416;28;20124;-78
2022/05/10 13:20:59;;;;;;;1.85;1.33;;;;;;;;;;5050791;28;20021;-79
2022/05/10 13:23:29;;;;;;;4.65;1.27;;;;;;;;;;5039020;28;20033;-78
2022/05/10 13:26:04;;;;;;;1.45;0.80;;;;;;;;;;5048340;28;20483;-78
2022/05/10 13:28:30;;;;;;;1.13;0.85;;;;;;;;;;5045061;28;20032;-79
2022/05/10 13:30:57;;;;;;;1.15;1.02;;;;;;;;;;5050021;28;20025;-78
2022/05/10 13:33:28;;;;;;;1.48;1.15;;;;;;;;;;5048987;28;20035;-77
2022/05/10 13:35:56;;;;;;;0.52;0.52;;;;;;;;;;5050651;28;20052;-78
2022/05/10 13:38:27;;;;;;;0.65;0.63;;;;;;;;;;5037680;28;20091;-78
2022/05/10 13:40:55;;;;;;;0.60;0.60;;;;;;;;;;5051019;28;20589;-78
2022/05/10 13:43:31;;;;;;;1.40;0.98;;;;;;;;;;5051505;28;20032;-79
2022/05/10 13:45:59;;;;;;;0.80;0.80;;;;;;;;;;5045147;28;20525;-78
2022/05/10 13:48:29;;;;;;;1.58;0.90;;;;;;;;;;5048100;28;20175;-76
2022/05/10 13:50:57;;;;;;;0.80;0.80;;;;;;;;;;5047541;28;20021;-78
2022/05/10 13:53:28;;;;;;;0.50;0.50;;;;;;;;;;5043050;28;20071;-78
2022/05/10 13:55:55;;;;;;;1.00;0.70;;;;;;;;;;5042958;28;20037;-78
2022/05/10 13:58:47;;;;;;;0.52;0.52;;;;;;;;;;5043899;28;20083;-78
2022/05/10 14:01:13;;;;;;;0.88;0.88;;;;;;;;;;5040369;28;20088;-78
2022/05/10 14:03:40;;;;;;;1.00;0.98;;;;;;;;;;5048983;28;20052;-78
2022/05/10 14:06:08;;;;;;;0.60;0.60;;;;;;;;;;5053105;28;20116;-79
2022/05/10 14:08:39;;;;;;;1.17;0.80;;;;;;;;;;5045497;28;20029;-77
2022/05/10 14:11:11;;;;;;;;;;;;;;;;;;5042949;28;20108;-78
2022/05/10 14:13:38;;;;;;;0.57;0.57;;;;;;;;;;5043273;28;20274;-78
2022/05/10 14:16:05;;;;;;;0.60;0.60;;;;;;;;;;5049124;28;20025;-78
2022/05/10 14:18:37;;;;;;;3.85;1.33;;;;;;;;;;5046947;28;20437;-78
2022/05/10 14:21:08;;;;;;;0.55;0.55;;;;;;;;;;5046970;28;20070;-77
2022/05/10 14:23:35;;;;;;;1.20;1.10;;;;;;;;;;5044092;28;20029;-78
2022/05/10 14:26:01;;;;;;;1.38;0.73;;;;;;;;;;5043227;28;20060;-78
2022/05/10 14:28:36;;;;;;;0.50;0.50;;;;;;;;;;5041904;28;20025;-77
2022/05/10 14:31:18;;;;;;;1.15;0.85;;;;;;;;;;5048402;28;20037;-78
2022/05/10 14:33:45;;;;;;;2.22;0.57;;;;;;;;;;5043024;28;20033;-78
2022/05/10 14:36:13;;;;;;;0.90;0.90;;;;;;;;;;5037411;28;20037;-78
2022/05/10 14:38:46;;;;;;;3.25;1.23;;;;;;;;;;5050804;28;20116;-78
2022/05/10 14:41:12;;;;;;;0.88;0.52;;;;;;;;;;5049570;28;20173;-78
2022/05/10 14:43:39;;;;;;;0.52;0.52;;;;;;;;;;5050076;28;20075;-78
2022/05/10 14:46:24;;;;;;;0.63;0.55;;;;;;;;;;5046544;28;20119;-78
2022/05/10 14:48:57;;;;;;;0.77;0.70;;;;;;;;;;5048825;28;20076;-77
2022/05/10 14:51:54;;;;;;;1.80;1.08;;;;;;;;;;5052787;28;20456;-78
2022/05/10 14:54:32;;;;;;;0.55;0.55;;;;;;;;;;5041008;28;20040;-78
2022/05/10 14:57:00;;;;;;;0.90;0.45;;;;;;;;;;5043152;28;20031;-78
2022/05/10 15:02:23;;;;;;;1.05;0.95;;;;;;;;;;5044762;28;20032;-78
2022/05/10 15:04:49;;;;;;;1.20;1.00;;;;;;;;;;5041408;28;20045;-78
2022/05/10 15:07:15;;;;;;;7.57;1.05;;;;;;;;;;5041800;28;20472;-78
2022/05/10 15:09:41;;;;;;;0.70;0.70;;;;;;;;;;5045965;28;20321;-78
2022/05/10 15:14:53;;;;;;;0.57;0.57;;;;;;;;;;5039412;28;20304;-78
2022/05/10 15:17:18;;;;;;;0.57;0.57;;;;;;;;;;5048656;28;20027;-78
2022/05/10 15:19:44;;;;;;;5.22;1.27;;;;;;;;;;5041497;28;20025;-77
2022/05/10 15:22:11;;;;;;;0.98;0.68;;;;;;;;;;5042928;28;20037;-77
2022/05/10 15:24:37;;;;;;;1.27;0.98;;;;;;;;;;5046321;28;20377;-78